createdAt,value
2023-05-19T00:00:40.193Z,10.37
2023-05-19T00:05:46.491Z,10.31
2023-05-19T00:10:48.870Z,10.27
2023-05-19T00:15:51.398Z,10.23
2023-05-19T00:20:53.480Z,10.20
2023-05-19T00:25:55.320Z,10.17
2023-05-19T00:30:57.394Z,10.15
2023-05-19T00:35:59.239Z,10.12
2023-05-19T00:41:02.658Z,10.11
2023-05-19T00:46:04.817Z,10.05
2023-05-19T00:51:07.403Z,10.08
2023-05-19T00:56:09.457Z,10.04
2023-05-19T01:01:12.566Z,10.00
2023-05-19T01:06:15.331Z,9.98
2023-05-19T01:11:17.611Z,9.93
2023-05-19T01:16:27.463Z,9.91
2023-05-19T01:21:55.802Z,9.87
2023-05-19T01:27:38.924Z,9.81
2023-05-19T01:32:42.439Z,9.84
2023-05-19T01:37:45.682Z,9.81
2023-05-19T01:42:48.195Z,9.75
2023-05-19T01:47:54.175Z,9.72
2023-05-19T01:52:56.760Z,9.68
2023-05-19T01:58:20.123Z,9.66
2023-05-19T02:03:28.044Z,9.67
2023-05-19T02:08:44.669Z,9.64
2023-05-19T02:13:51.582Z,9.61
2023-05-19T02:18:54.469Z,9.57
2023-05-19T02:23:56.571Z,9.56
2023-05-19T02:28:58.470Z,9.54
2023-05-19T02:34:00.549Z,9.48
2023-05-19T02:39:03.265Z,9.47
2023-05-19T02:44:05.951Z,9.43
2023-05-19T02:49:07.976Z,9.40
2023-05-19T02:54:10.023Z,9.35
2023-05-19T02:59:12.026Z,9.34
2023-05-19T03:04:14.321Z,9.32
2023-05-19T03:09:16.559Z,9.32
2023-05-19T03:14:18.930Z,9.32
2023-05-19T03:19:21.212Z,9.31
2023-05-19T03:24:23.464Z,9.32
2023-05-19T03:29:25.339Z,9.36
2023-05-19T03:34:27.475Z,9.37
2023-05-19T03:39:29.559Z,9.39
2023-05-19T03:44:31.590Z,9.42
2023-05-19T03:49:33.643Z,9.46
2023-05-19T03:54:36.367Z,9.47
2023-05-19T03:59:38.643Z,9.48
2023-05-19T04:04:40.704Z,9.52
2023-05-19T04:09:43.205Z,9.55
2023-05-19T04:14:45.275Z,9.54
2023-05-19T04:19:47.174Z,9.60
2023-05-19T04:24:50.711Z,9.60
2023-05-19T04:29:53.117Z,9.64
2023-05-19T04:34:55.297Z,9.65
2023-05-19T04:39:57.480Z,9.70
2023-05-19T04:44:59.646Z,9.72
2023-05-19T04:50:01.745Z,9.74
2023-05-19T04:55:04.367Z,9.78
2023-05-19T05:00:09.367Z,9.81
2023-05-19T05:05:11.413Z,9.86
2023-05-19T05:10:13.377Z,9.91
2023-05-19T05:15:16.216Z,9.93
2023-05-19T05:20:19.922Z,9.94
2023-05-19T05:25:22.351Z,9.98
2023-05-19T05:30:24.404Z,9.99
2023-05-19T05:35:26.405Z,10.03
2023-05-19T05:40:28.402Z,10.07
2023-05-19T05:45:30.811Z,10.09
2023-05-19T05:50:33.606Z,10.13
2023-05-19T05:55:36.123Z,10.16
2023-05-19T06:00:38.985Z,10.22
2023-05-19T06:05:47.723Z,10.28
2023-05-19T06:10:50.935Z,10.32
2023-05-19T06:15:53.291Z,10.38
2023-05-19T06:20:55.812Z,10.43
2023-05-19T06:25:58.065Z,10.49
2023-05-19T06:31:00.512Z,10.59
2023-05-19T06:36:02.760Z,10.67
2023-05-19T06:41:05.722Z,10.75
2023-05-19T06:46:08.417Z,10.84
2023-05-19T06:51:15.244Z,10.94
2023-05-19T06:56:19.146Z,11.06
2023-05-19T07:01:21.642Z,11.14
2023-05-19T07:06:24.145Z,11.23
2023-05-19T07:11:27.199Z,11.32
2023-05-19T07:16:38.674Z,11.43
2023-05-19T07:21:42.743Z,11.49
2023-05-19T07:26:44.977Z,11.54
2023-05-19T07:31:47.108Z,11.63
2023-05-19T07:36:49.297Z,11.66
2023-05-19T07:41:54.663Z,11.75
2023-05-19T07:46:56.705Z,11.78
2023-05-19T07:51:58.839Z,11.86
2023-05-19T07:57:01.300Z,11.92
2023-05-19T08:02:03.735Z,12.01
2023-05-19T08:07:05.911Z,12.12
2023-05-19T08:12:08.278Z,12.30
2023-05-19T08:17:10.561Z,12.39
2023-05-19T08:22:12.798Z,12.52
2023-05-19T08:27:14.818Z,12.74
2023-05-19T08:32:17.793Z,12.83
2023-05-19T08:37:19.842Z,12.86
2023-05-19T08:42:21.919Z,12.77
2023-05-19T08:47:24.207Z,12.73
2023-05-19T08:52:37.015Z,12.77
2023-05-19T08:57:39.885Z,12.76
2023-05-19T09:02:50.628Z,12.74
2023-05-19T09:08:05.255Z,12.69
2023-05-19T09:13:07.875Z,12.72
2023-05-19T09:18:13.305Z,12.75
2023-05-19T09:23:16.955Z,12.74
2023-05-19T09:28:25.995Z,12.69
2023-05-19T09:33:28.893Z,12.71
2023-05-19T09:38:31.058Z,12.69
2023-05-19T09:43:34.613Z,12.73
2023-05-19T09:48:37.727Z,12.75
2023-05-19T09:53:40.094Z,12.80
2023-05-19T09:58:43.004Z,12.80
2023-05-19T10:03:45.561Z,12.84
2023-05-19T10:08:48.448Z,13.00
2023-05-19T10:13:51.867Z,13.07
2023-05-19T10:18:57.470Z,13.05
2023-05-19T10:23:59.657Z,13.05
2023-05-19T10:29:03.711Z,12.97
2023-05-19T10:34:50.651Z,13.01
2023-05-19T10:39:53.650Z,12.97
2023-05-19T10:45:10.501Z,13.04
2023-05-19T10:50:12.811Z,13.09
2023-05-19T10:55:18.339Z,13.08
2023-05-19T11:00:32.285Z,13.08
2023-05-19T11:05:37.424Z,13.10
2023-05-19T11:10:39.967Z,13.11
2023-05-19T11:15:43.417Z,13.11
2023-05-19T11:20:58.664Z,13.10
2023-05-19T11:26:03.055Z,13.11
2023-05-19T11:31:08.395Z,13.12
2023-05-19T11:36:11.417Z,13.11
2023-05-19T11:41:18.231Z,13.09
2023-05-19T11:46:21.387Z,13.07
2023-05-19T11:51:23.761Z,13.12
2023-05-19T11:56:26.773Z,13.13
2023-05-19T12:01:28.892Z,13.12
2023-05-19T12:06:31.618Z,13.12
2023-05-19T12:11:35.312Z,13.17
2023-05-19T12:16:37.467Z,13.17
2023-05-19T12:21:39.909Z,13.18
2023-05-19T12:26:42.116Z,13.17
2023-05-19T12:31:47.168Z,13.13
2023-05-19T12:36:50.114Z,13.09
2023-05-19T12:41:52.349Z,13.13
2023-05-19T12:46:54.682Z,13.12
2023-05-19T12:51:56.935Z,13.06
2023-05-19T12:57:00.494Z,13.09
2023-05-19T13:02:02.857Z,13.07
2023-05-19T13:07:06.112Z,13.08
2023-05-19T13:12:08.458Z,13.08
2023-05-19T13:17:10.595Z,13.10
2023-05-19T13:22:12.828Z,13.11
2023-05-19T13:27:16.115Z,13.14
2023-05-19T13:32:18.383Z,13.20
2023-05-19T13:37:20.997Z,13.19
2023-05-19T13:42:23.607Z,13.16
2023-05-19T13:47:26.666Z,13.12
2023-05-19T13:52:30.486Z,13.08
2023-05-19T13:57:33.432Z,13.09
2023-05-19T14:02:36.581Z,13.08
2023-05-19T14:07:39.173Z,13.07
2023-05-19T14:13:04.754Z,13.13
2023-05-19T14:18:05.044Z,13.16
2023-05-19T14:23:08.945Z,13.17
2023-05-19T14:28:11.582Z,13.20
2023-05-19T14:33:16.167Z,13.20
2023-05-19T14:38:23.075Z,13.22
2023-05-19T14:43:25.519Z,13.22
2023-05-19T14:48:32.055Z,13.21
2023-05-19T14:53:34.219Z,13.17
2023-05-19T14:58:37.416Z,13.18
2023-05-19T15:03:39.738Z,13.17
2023-05-19T15:08:41.994Z,13.19
2023-05-19T15:13:44.411Z,13.22
2023-05-19T15:18:46.799Z,13.24
2023-05-19T15:23:48.935Z,13.25
2023-05-19T15:28:53.203Z,13.25
2023-05-19T15:33:55.450Z,13.26
2023-05-19T15:38:57.649Z,13.25
2023-05-19T15:44:02.889Z,13.28
2023-05-19T15:49:07.334Z,13.28
2023-05-19T15:54:11.175Z,13.28
2023-05-19T15:59:36.649Z,13.28
2023-05-19T16:04:45.782Z,13.27
2023-05-19T16:09:48.412Z,13.23
2023-05-19T16:14:51.314Z,13.22
2023-05-19T16:19:53.520Z,13.21
2023-05-19T16:24:55.840Z,13.22
2023-05-19T16:29:58.054Z,13.19
2023-05-19T16:35:00.368Z,13.19
2023-05-19T16:40:02.549Z,13.19
2023-05-19T16:45:05.872Z,13.18
2023-05-19T16:50:08.860Z,13.15
2023-05-19T16:55:13.355Z,13.12
2023-05-19T17:00:15.975Z,13.12
2023-05-19T17:05:18.220Z,13.11
2023-05-19T17:10:21.056Z,13.09
2023-05-19T17:15:23.447Z,13.08
2023-05-19T17:20:25.673Z,13.07
2023-05-19T17:25:27.878Z,13.05
2023-05-19T17:30:30.138Z,13.01
2023-05-19T17:35:34.279Z,12.99
2023-05-19T17:40:38.593Z,12.97
2023-05-19T17:45:42.052Z,12.96
2023-05-19T17:50:48.321Z,12.92
2023-05-19T17:56:01.971Z,12.90
2023-05-19T18:01:04.900Z,12.88
2023-05-19T18:06:07.936Z,12.87
2023-05-19T18:11:13.813Z,12.83
2023-05-19T18:16:16.281Z,12.78
2023-05-19T18:21:20.899Z,12.77
2023-05-19T18:26:23.509Z,12.73
2023-05-19T18:31:26.347Z,12.70
2023-05-19T18:36:41.426Z,12.68
2023-05-19T18:41:44.913Z,12.63
2023-05-19T18:46:47.231Z,12.59
2023-05-19T18:51:50.397Z,12.58
2023-05-19T18:56:53.195Z,12.56
2023-05-19T19:01:56.163Z,12.53
2023-05-19T19:06:58.601Z,12.52
2023-05-19T19:12:01.200Z,12.50
2023-05-19T19:17:03.420Z,12.48
2023-05-19T19:22:05.672Z,12.44
2023-05-19T19:27:07.775Z,12.43
2023-05-19T19:32:17.401Z,12.42
2023-05-19T19:37:23.059Z,12.39
2023-05-19T19:42:25.875Z,12.38
2023-05-19T19:47:27.856Z,12.36
2023-05-19T19:52:30.303Z,12.35
2023-05-19T19:57:34.679Z,12.33
2023-05-19T20:02:45.529Z,12.30
2023-05-19T20:07:57.855Z,12.28
2023-05-19T20:13:00.043Z,12.27
2023-05-19T20:18:03.701Z,12.24
2023-05-19T20:23:06.375Z,12.22
2023-05-19T20:28:08.627Z,12.22
2023-05-19T20:33:12.407Z,12.20
2023-05-19T20:38:15.008Z,12.19
2023-05-19T20:43:17.026Z,12.18
2023-05-19T20:48:19.143Z,12.17
2023-05-19T20:53:22.134Z,12.13
2023-05-19T20:58:26.943Z,12.14
2023-05-19T21:03:30.656Z,12.09
2023-05-19T21:08:33.061Z,12.08
2023-05-19T21:13:39.386Z,12.09
2023-05-19T21:18:42.136Z,12.06
2023-05-19T21:23:44.053Z,12.03
2023-05-19T21:28:45.828Z,12.05
2023-05-19T21:33:47.859Z,12.03
2023-05-19T21:38:49.778Z,12.03
2023-05-19T21:43:51.676Z,12.00
2023-05-19T21:48:53.541Z,12.01
2023-05-19T21:53:55.883Z,12.00
2023-05-19T21:58:57.870Z,11.97
2023-05-19T22:03:59.686Z,11.97
2023-05-19T22:09:02.776Z,11.95
2023-05-19T22:14:04.847Z,11.94
2023-05-19T22:19:06.937Z,11.92
2023-05-19T22:24:09.046Z,11.94
2023-05-19T22:29:15.292Z,11.90
2023-05-19T22:34:17.596Z,11.91
2023-05-19T22:39:19.580Z,11.90
2023-05-19T22:44:21.760Z,11.88
2023-05-19T22:49:23.883Z,11.89
2023-05-19T22:54:25.805Z,11.88
2023-05-19T22:59:27.993Z,11.87
2023-05-19T23:04:29.994Z,11.87
2023-05-19T23:09:32.024Z,11.85
2023-05-19T23:14:33.847Z,11.83
2023-05-19T23:19:37.163Z,11.83
2023-05-19T23:24:39.056Z,11.80
2023-05-19T23:29:40.908Z,11.80
2023-05-19T23:34:42.883Z,11.79
2023-05-19T23:39:54.755Z,11.78
2023-05-19T23:44:56.615Z,11.76
2023-05-19T23:49:58.368Z,11.76
2023-05-19T23:55:00.220Z,11.75
